sensor_id;sensor_type;location;lat;lon;timestamp;P1;durP1;ratioP1;P2;durP2;ratioP2
31368;SDS011;18004;48.416;10.066;2023-07-02T00:01:45;1.23;;;0.93;;
31368;SDS011;18004;48.416;10.066;2023-07-02T00:04:12;0.85;;;0.80;;
31368;SDS011;18004;48.416;10.066;2023-07-02T00:06:44;1.80;;;0.98;;
31368;SDS011;18004;48.416;10.066;2023-07-02T00:09:10;1.67;;;0.70;;
31368;SDS011;18004;48.416;10.066;2023-07-02T00:11:40;0.70;;;0.70;;
31368;SDS011;18004;48.416;10.066;2023-07-02T00:14:08;0.88;;;0.70;;
31368;SDS011;18004;48.416;10.066;2023-07-02T00:16:37;0.80;;;0.70;;
31368;SDS011;18004;48.416;10.066;2023-07-02T00:19:05;1.43;;;0.70;;
31368;SDS011;18004;48.416;10.066;2023-07-02T00:21:31;1.88;;;0.47;;
31368;SDS011;18004;48.416;10.066;2023-07-02T00:23:58;0.82;;;0.70;;
31368;SDS011;18004;48.416;10.066;2023-07-02T00:26:25;0.98;;;0.60;;
31368;SDS011;18004;48.416;10.066;2023-07-02T00:28:55;0.52;;;0.52;;
31368;SDS011;18004;48.416;10.066;2023-07-02T00:31:22;1.60;;;0.70;;
31368;SDS011;18004;48.416;10.066;2023-07-02T00:33:49;1.30;;;0.60;;
31368;SDS011;18004;48.416;10.066;2023-07-02T00:36:15;1.45;;;0.60;;
31368;SDS011;18004;48.416;10.066;2023-07-02T00:38:41;0.88;;;0.60;;
31368;SDS011;18004;48.416;10.066;2023-07-02T00:41:08;2.28;;;0.63;;
31368;SDS011;18004;48.416;10.066;2023-07-02T00:43:34;1.08;;;0.50;;
31368;SDS011;18004;48.416;10.066;2023-07-02T00:46:00;1.10;;;0.40;;
31368;SDS011;18004;48.416;10.066;2023-07-02T00:48:27;0.88;;;0.70;;
31368;SDS011;18004;48.416;10.066;2023-07-02T00:50:54;2.88;;;0.68;;
31368;SDS011;18004;48.416;10.066;2023-07-02T00:53:20;1.38;;;0.63;;
31368;SDS011;18004;48.416;10.066;2023-07-02T00:55:46;1.33;;;0.70;;
31368;SDS011;18004;48.416;10.066;2023-07-02T00:58:12;0.75;;;0.60;;
31368;SDS011;18004;48.416;10.066;2023-07-02T01:00:41;0.80;;;0.80;;
31368;SDS011;18004;48.416;10.066;2023-07-02T01:03:07;2.03;;;0.80;;
31368;SDS011;18004;48.416;10.066;2023-07-02T01:05:33;0.60;;;0.60;;
31368;SDS011;18004;48.416;10.066;2023-07-02T01:08:02;2.33;;;0.90;;
31368;SDS011;18004;48.416;10.066;2023-07-02T01:10:29;0.70;;;0.65;;
31368;SDS011;18004;48.416;10.066;2023-07-02T01:12:57;1.25;;;1.00;;
31368;SDS011;18004;48.416;10.066;2023-07-02T01:15:29;0.98;;;0.75;;
31368;SDS011;18004;48.416;10.066;2023-07-02T01:17:55;1.13;;;0.63;;
31368;SDS011;18004;48.416;10.066;2023-07-02T01:20:21;1.42;;;0.80;;
31368;SDS011;18004;48.416;10.066;2023-07-02T01:22:49;1.13;;;0.88;;
31368;SDS011;18004;48.416;10.066;2023-07-02T01:25:18;0.77;;;0.65;;
31368;SDS011;18004;48.416;10.066;2023-07-02T01:27:44;4.43;;;1.17;;
31368;SDS011;18004;48.416;10.066;2023-07-02T01:30:10;1.15;;;0.68;;
31368;SDS011;18004;48.416;10.066;2023-07-02T01:32:36;1.25;;;0.85;;
31368;SDS011;18004;48.416;10.066;2023-07-02T01:35:03;1.75;;;0.93;;
31368;SDS011;18004;48.416;10.066;2023-07-02T01:37:29;7.18;;;1.10;;
31368;SDS011;18004;48.416;10.066;2023-07-02T01:40:02;2.92;;;0.85;;
31368;SDS011;18004;48.416;10.066;2023-07-02T01:42:31;3.80;;;1.20;;
31368;SDS011;18004;48.416;10.066;2023-07-02T01:44:57;2.65;;;0.90;;
31368;SDS011;18004;48.416;10.066;2023-07-02T01:47:23;1.60;;;0.93;;
31368;SDS011;18004;48.416;10.066;2023-07-02T01:49:49;1.15;;;0.93;;
31368;SDS011;18004;48.416;10.066;2023-07-02T01:52:35;3.88;;;0.80;;
31368;SDS011;18004;48.416;10.066;2023-07-02T01:55:01;2.50;;;0.93;;
31368;SDS011;18004;48.416;10.066;2023-07-02T01:57:27;0.80;;;0.80;;
31368;SDS011;18004;48.416;10.066;2023-07-02T01:59:55;3.97;;;0.93;;
31368;SDS011;18004;48.416;10.066;2023-07-02T02:02:21;4.80;;;1.15;;
31368;SDS011;18004;48.416;10.066;2023-07-02T02:04:47;1.73;;;0.82;;
31368;SDS011;18004;48.416;10.066;2023-07-02T02:07:12;1.90;;;0.80;;
31368;SDS011;18004;48.416;10.066;2023-07-02T02:09:38;2.30;;;0.90;;
31368;SDS011;18004;48.416;10.066;2023-07-02T02:12:04;3.85;;;1.00;;
31368;SDS011;18004;48.416;10.066;2023-07-02T02:14:30;1.15;;;0.85;;
31368;SDS011;18004;48.416;10.066;2023-07-02T02:16:55;4.45;;;1.27;;
31368;SDS011;18004;48.416;10.066;2023-07-02T02:19:21;1.48;;;0.80;;
31368;SDS011;18004;48.416;10.066;2023-07-02T02:21:47;0.77;;;0.77;;
31368;SDS011;18004;48.416;10.066;2023-07-02T02:24:13;1.33;;;0.82;;
31368;SDS011;18004;48.416;10.066;2023-07-02T02:26:38;3.38;;;0.90;;
31368;SDS011;18004;48.416;10.066;2023-07-02T02:29:07;1.83;;;0.60;;
31368;SDS011;18004;48.416;10.066;2023-07-02T02:31:32;3.00;;;0.90;;
31368;SDS011;18004;48.416;10.066;2023-07-02T02:33:58;0.90;;;0.70;;
31368;SDS011;18004;48.416;10.066;2023-07-02T02:36:24;1.65;;;0.75;;
31368;SDS011;18004;48.416;10.066;2023-07-02T02:38:50;1.00;;;0.70;;
31368;SDS011;18004;48.416;10.066;2023-07-02T02:41:15;2.22;;;0.77;;
31368;SDS011;18004;48.416;10.066;2023-07-02T02:43:41;1.55;;;0.80;;
31368;SDS011;18004;48.416;10.066;2023-07-02T02:46:09;1.38;;;0.70;;
31368;SDS011;18004;48.416;10.066;2023-07-02T02:48:36;1.30;;;0.82;;
31368;SDS011;18004;48.416;10.066;2023-07-02T02:51:42;1.20;;;0.90;;
31368;SDS011;18004;48.416;10.066;2023-07-02T02:54:08;1.00;;;0.60;;
31368;SDS011;18004;48.416;10.066;2023-07-02T02:56:34;3.17;;;0.90;;
31368;SDS011;18004;48.416;10.066;2023-07-02T02:59:17;0.95;;;0.73;;
31368;SDS011;18004;48.416;10.066;2023-07-02T03:01:43;1.90;;;0.65;;
31368;SDS011;18004;48.416;10.066;2023-07-02T03:04:22;1.77;;;0.90;;
31368;SDS011;18004;48.416;10.066;2023-07-02T03:06:51;1.27;;;0.90;;
31368;SDS011;18004;48.416;10.066;2023-07-02T03:09:18;0.70;;;0.70;;
31368;SDS011;18004;48.416;10.066;2023-07-02T03:11:45;1.80;;;0.82;;
31368;SDS011;18004;48.416;10.066;2023-07-02T03:14:11;2.88;;;0.95;;
31368;SDS011;18004;48.416;10.066;2023-07-02T03:16:37;1.85;;;1.13;;
31368;SDS011;18004;48.416;10.066;2023-07-02T03:19:03;2.42;;;0.70;;
31368;SDS011;18004;48.416;10.066;2023-07-02T03:21:28;1.92;;;0.80;;
31368;SDS011;18004;48.416;10.066;2023-07-02T03:23:55;3.63;;;0.80;;
31368;SDS011;18004;48.416;10.066;2023-07-02T03:26:21;2.53;;;0.80;;
31368;SDS011;18004;48.416;10.066;2023-07-02T03:28:48;2.60;;;0.93;;
31368;SDS011;18004;48.416;10.066;2023-07-02T03:31:13;1.45;;;0.82;;
31368;SDS011;18004;48.416;10.066;2023-07-02T03:33:40;0.95;;;0.75;;
31368;SDS011;18004;48.416;10.066;2023-07-02T03:36:05;1.35;;;0.90;;
31368;SDS011;18004;48.416;10.066;2023-07-02T03:38:32;2.35;;;1.10;;
31368;SDS011;18004;48.416;10.066;2023-07-02T03:40:57;1.65;;;0.85;;
31368;SDS011;18004;48.416;10.066;2023-07-02T03:43:23;1.42;;;0.77;;
31368;SDS011;18004;48.416;10.066;2023-07-02T03:45:54;1.25;;;0.95;;
31368;SDS011;18004;48.416;10.066;2023-07-02T03:48:19;2.00;;;1.05;;
31368;SDS011;18004;48.416;10.066;2023-07-02T03:50:45;1.83;;;0.98;;
31368;SDS011;18004;48.416;10.066;2023-07-02T03:53:11;1.50;;;0.80;;
31368;SDS011;18004;48.416;10.066;2023-07-02T03:55:37;1.75;;;1.05;;
31368;SDS011;18004;48.416;10.066;2023-07-02T03:58:04;1.65;;;1.00;;
31368;SDS011;18004;48.416;10.066;2023-07-02T04:00:30;6.07;;;1.73;;
31368;SDS011;18004;48.416;10.066;2023-07-02T04:02:56;4.22;;;1.33;;
31368;SDS011;18004;48.416;10.066;2023-07-02T04:05:22;1.98;;;1.08;;
31368;SDS011;18004;48.416;10.066;2023-07-02T04:07:47;3.20;;;1.13;;
31368;SDS011;18004;48.416;10.066;2023-07-02T04:10:13;1.42;;;1.15;;
31368;SDS011;18004;48.416;10.066;2023-07-02T04:12:39;3.17;;;1.27;;
31368;SDS011;18004;48.416;10.066;2023-07-02T04:15:05;1.42;;;0.98;;
31368;SDS011;18004;48.416;10.066;2023-07-02T04:17:31;2.15;;;1.23;;
31368;SDS011;18004;48.416;10.066;2023-07-02T04:19:57;6.78;;;1.10;;
31368;SDS011;18004;48.416;10.066;2023-07-02T04:22:26;1.63;;;1.00;;
31368;SDS011;18004;48.416;10.066;2023-07-02T04:24:52;1.13;;;1.00;;
31368;SDS011;18004;48.416;10.066;2023-07-02T04:27:18;1.58;;;1.00;;
31368;SDS011;18004;48.416;10.066;2023-07-02T04:29:44;6.78;;;1.50;;
31368;SDS011;18004;48.416;10.066;2023-07-02T04:32:10;2.38;;;1.10;;
31368;SDS011;18004;48.416;10.066;2023-07-02T04:34:35;1.77;;;1.10;;
31368;SDS011;18004;48.416;10.066;2023-07-02T04:37:02;1.30;;;1.00;;
31368;SDS011;18004;48.416;10.066;2023-07-02T04:39:31;3.72;;;1.50;;
31368;SDS011;18004;48.416;10.066;2023-07-02T04:41:57;1.30;;;1.20;;
31368;SDS011;18004;48.416;10.066;2023-07-02T04:44:23;1.60;;;1.25;;
31368;SDS011;18004;48.416;10.066;2023-07-02T04:47:01;3.07;;;1.57;;
31368;SDS011;18004;48.416;10.066;2023-07-02T04:49:27;2.40;;;1.25;;
31368;SDS011;18004;48.416;10.066;2023-07-02T04:51:53;2.83;;;1.30;;
31368;SDS011;18004;48.416;10.066;2023-07-02T04:54:22;5.25;;;1.20;;
31368;SDS011;18004;48.416;10.066;2023-07-02T04:56:48;2.45;;;1.08;;
31368;SDS011;18004;48.416;10.066;2023-07-02T04:59:14;2.28;;;1.55;;
31368;SDS011;18004;48.416;10.066;2023-07-02T05:01:40;1.23;;;1.00;;
31368;SDS011;18004;48.416;10.066;2023-07-02T05:04:09;2.53;;;1.35;;
31368;SDS011;18004;48.416;10.066;2023-07-02T05:06:36;1.65;;;1.02;;
31368;SDS011;18004;48.416;10.066;2023-07-02T05:09:02;4.65;;;1.52;;
31368;SDS011;18004;48.416;10.066;2023-07-02T05:11:28;2.40;;;1.50;;
31368;SDS011;18004;48.416;10.066;2023-07-02T05:13:54;1.60;;;1.23;;
31368;SDS011;18004;48.416;10.066;2023-07-02T05:16:19;2.70;;;1.67;;
31368;SDS011;18004;48.416;10.066;2023-07-02T05:18:45;4.82;;;1.30;;
31368;SDS011;18004;48.416;10.066;2023-07-02T05:21:11;4.93;;;1.50;;
31368;SDS011;18004;48.416;10.066;2023-07-02T05:23:37;4.65;;;1.30;;
31368;SDS011;18004;48.416;10.066;2023-07-02T05:26:02;3.83;;;1.55;;
31368;SDS011;18004;48.416;10.066;2023-07-02T05:28:28;2.22;;;1.58;;
31368;SDS011;18004;48.416;10.066;2023-07-02T05:30:54;8.30;;;1.50;;
31368;SDS011;18004;48.416;10.066;2023-07-02T05:33:20;2.85;;;1.35;;
31368;SDS011;18004;48.416;10.066;2023-07-02T05:35:47;3.28;;;1.50;;
31368;SDS011;18004;48.416;10.066;2023-07-02T05:38:13;3.10;;;1.50;;
31368;SDS011;18004;48.416;10.066;2023-07-02T05:40:39;3.25;;;1.50;;
31368;SDS011;18004;48.416;10.066;2023-07-02T05:43:04;5.63;;;1.77;;
31368;SDS011;18004;48.416;10.066;2023-07-02T05:45:30;1.60;;;0.98;;
31368;SDS011;18004;48.416;10.066;2023-07-02T05:47:56;2.22;;;1.45;;
31368;SDS011;18004;48.416;10.066;2023-07-02T05:50:22;2.42;;;1.25;;
31368;SDS011;18004;48.416;10.066;2023-07-02T05:52:48;1.65;;;1.15;;
31368;SDS011;18004;48.416;10.066;2023-07-02T05:55:14;2.22;;;1.38;;
31368;SDS011;18004;48.416;10.066;2023-07-02T05:57:40;1.40;;;1.00;;
31368;SDS011;18004;48.416;10.066;2023-07-02T06:00:05;1.35;;;1.02;;
31368;SDS011;18004;48.416;10.066;2023-07-02T06:02:32;1.63;;;1.02;;
31368;SDS011;18004;48.416;10.066;2023-07-02T06:04:58;2.65;;;1.40;;
31368;SDS011;18004;48.416;10.066;2023-07-02T06:07:24;2.35;;;1.15;;
31368;SDS011;18004;48.416;10.066;2023-07-02T06:09:50;2.20;;;1.05;;
31368;SDS011;18004;48.416;10.066;2023-07-02T06:12:16;2.95;;;0.70;;
31368;SDS011;18004;48.416;10.066;2023-07-02T06:14:42;0.73;;;0.70;;
31368;SDS011;18004;48.416;10.066;2023-07-02T06:17:08;0.88;;;0.60;;
31368;SDS011;18004;48.416;10.066;2023-07-02T06:19:35;0.47;;;0.40;;
31368;SDS011;18004;48.416;10.066;2023-07-02T06:22:01;1.05;;;0.40;;
31368;SDS011;18004;48.416;10.066;2023-07-02T06:24:27;0.30;;;0.30;;
31368;SDS011;18004;48.416;10.066;2023-07-02T06:26:53;0.50;;;0.40;;
31368;SDS011;18004;48.416;10.066;2023-07-02T06:29:19;0.45;;;0.40;;
31368;SDS011;18004;48.416;10.066;2023-07-02T06:31:44;0.32;;;0.32;;
31368;SDS011;18004;48.416;10.066;2023-07-02T06:34:10;0.20;;;0.20;;
31368;SDS011;18004;48.416;10.066;2023-07-02T06:36:36;0.28;;;0.25;;
31368;SDS011;18004;48.416;10.066;2023-07-02T06:39:02;1.67;;;0.20;;
31368;SDS011;18004;48.416;10.066;2023-07-02T06:41:27;4.30;;;0.45;;
31368;SDS011;18004;48.416;10.066;2023-07-02T06:43:53;0.80;;;0.50;;
31368;SDS011;18004;48.416;10.066;2023-07-02T06:46:19;0.60;;;0.50;;
31368;SDS011;18004;48.416;10.066;2023-07-02T06:48:45;0.40;;;0.32;;
31368;SDS011;18004;48.416;10.066;2023-07-02T06:51:10;0.85;;;0.50;;
31368;SDS011;18004;48.416;10.066;2023-07-02T06:53:40;0.35;;;0.35;;
31368;SDS011;18004;48.416;10.066;2023-07-02T06:56:09;1.85;;;0.90;;
31368;SDS011;18004;48.416;10.066;2023-07-02T06:58:35;1.23;;;0.85;;
31368;SDS011;18004;48.416;10.066;2023-07-02T07:01:02;1.58;;;1.00;;
31368;SDS011;18004;48.416;10.066;2023-07-02T07:03:28;2.08;;;1.52;;
31368;SDS011;18004;48.416;10.066;2023-07-02T07:05:53;2.85;;;1.80;;
31368;SDS011;18004;48.416;10.066;2023-07-02T07:08:19;3.95;;;1.45;;
31368;SDS011;18004;48.416;10.066;2023-07-02T07:10:45;2.83;;;1.42;;
31368;SDS011;18004;48.416;10.066;2023-07-02T07:13:11;4.50;;;1.77;;
31368;SDS011;18004;48.416;10.066;2023-07-02T07:15:37;5.07;;;1.65;;
31368;SDS011;18004;48.416;10.066;2023-07-02T07:18:03;7.03;;;1.42;;
31368;SDS011;18004;48.416;10.066;2023-07-02T07:20:29;2.03;;;1.10;;
31368;SDS011;18004;48.416;10.066;2023-07-02T07:22:56;2.40;;;1.45;;
31368;SDS011;18004;48.416;10.066;2023-07-02T07:25:22;2.00;;;1.27;;
31368;SDS011;18004;48.416;10.066;2023-07-02T07:27:48;4.35;;;1.77;;
31368;SDS011;18004;48.416;10.066;2023-07-02T07:30:14;5.45;;;1.75;;
31368;SDS011;18004;48.416;10.066;2023-07-02T07:32:40;2.55;;;1.35;;
31368;SDS011;18004;48.416;10.066;2023-07-02T07:35:06;1.50;;;1.30;;
31368;SDS011;18004;48.416;10.066;2023-07-02T07:37:33;2.90;;;1.60;;
31368;SDS011;18004;48.416;10.066;2023-07-02T07:39:58;4.57;;;1.45;;
31368;SDS011;18004;48.416;10.066;2023-07-02T07:42:24;2.22;;;1.35;;
31368;SDS011;18004;48.416;10.066;2023-07-02T07:44:50;5.03;;;1.42;;
31368;SDS011;18004;48.416;10.066;2023-07-02T07:47:16;2.97;;;1.88;;
31368;SDS011;18004;48.416;10.066;2023-07-02T07:49:41;3.35;;;1.80;;
31368;SDS011;18004;48.416;10.066;2023-07-02T07:52:07;4.28;;;1.50;;
31368;SDS011;18004;48.416;10.066;2023-07-02T07:55:31;3.60;;;1.67;;
31368;SDS011;18004;48.416;10.066;2023-07-02T07:57:57;2.38;;;1.58;;
31368;SDS011;18004;48.416;10.066;2023-07-02T08:12:38;8.40;;;2.33;;
31368;SDS011;18004;48.416;10.066;2023-07-02T08:15:04;3.42;;;1.92;;
31368;SDS011;18004;48.416;10.066;2023-07-02T08:17:30;4.45;;;2.38;;
31368;SDS011;18004;48.416;10.066;2023-07-02T08:19:56;5.93;;;2.70;;
31368;SDS011;18004;48.416;10.066;2023-07-02T08:22:23;5.15;;;2.35;;
31368;SDS011;18004;48.416;10.066;2023-07-02T08:24:48;4.38;;;2.13;;
31368;SDS011;18004;48.416;10.066;2023-07-02T08:27:17;3.83;;;2.15;;
31368;SDS011;18004;48.416;10.066;2023-07-02T08:29:56;6.00;;;2.63;;
31368;SDS011;18004;48.416;10.066;2023-07-02T08:40:20;4.45;;;2.30;;
31368;SDS011;18004;48.416;10.066;2023-07-02T08:42:46;5.75;;;2.30;;
31368;SDS011;18004;48.416;10.066;2023-07-02T08:45:35;6.15;;;2.75;;
31368;SDS011;18004;48.416;10.066;2023-07-02T08:51:34;5.53;;;2.97;;
31368;SDS011;18004;48.416;10.066;2023-07-02T08:54:01;4.80;;;2.80;;
31368;SDS011;18004;48.416;10.066;2023-07-02T09:04:28;4.80;;;2.53;;
31368;SDS011;18004;48.416;10.066;2023-07-02T09:09:45;16.00;;;2.70;;
31368;SDS011;18004;48.416;10.066;2023-07-02T09:12:24;4.45;;;2.63;;
31368;SDS011;18004;48.416;10.066;2023-07-02T09:14:56;7.75;;;3.67;;
31368;SDS011;18004;48.416;10.066;2023-07-02T09:18:59;7.90;;;3.00;;
31368;SDS011;18004;48.416;10.066;2023-07-02T09:21:38;4.72;;;3.03;;
31368;SDS011;18004;48.416;10.066;2023-07-02T09:24:21;10.27;;;3.70;;
31368;SDS011;18004;48.416;10.066;2023-07-02T09:27:00;6.65;;;3.00;;
31368;SDS011;18004;48.416;10.066;2023-07-02T09:29:34;8.15;;;3.25;;
31368;SDS011;18004;48.416;10.066;2023-07-02T09:32:27;4.97;;;2.83;;
31368;SDS011;18004;48.416;10.066;2023-07-02T09:35:01;7.10;;;3.83;;
31368;SDS011;18004;48.416;10.066;2023-07-02T09:44:43;5.50;;;3.80;;
31368;SDS011;18004;48.416;10.066;2023-07-02T09:47:42;4.28;;;2.97;;
31368;SDS011;18004;48.416;10.066;2023-07-02T09:55:12;7.45;;;3.05;;
31368;SDS011;18004;48.416;10.066;2023-07-02T10:01:00;5.22;;;2.35;;
31368;SDS011;18004;48.416;10.066;2023-07-02T10:03:40;4.68;;;2.70;;
31368;SDS011;18004;48.416;10.066;2023-07-02T10:06:43;5.82;;;2.95;;
31368;SDS011;18004;48.416;10.066;2023-07-02T10:12:28;4.55;;;3.10;;
31368;SDS011;18004;48.416;10.066;2023-07-02T10:14:56;6.13;;;3.03;;
31368;SDS011;18004;48.416;10.066;2023-07-02T10:17:30;7.47;;;2.75;;
31368;SDS011;18004;48.416;10.066;2023-07-02T10:20:04;6.47;;;2.90;;
31368;SDS011;18004;48.416;10.066;2023-07-02T10:28:25;5.20;;;3.80;;
31368;SDS011;18004;48.416;10.066;2023-07-02T10:31:00;5.07;;;3.13;;
31368;SDS011;18004;48.416;10.066;2023-07-02T10:34:10;5.78;;;3.40;;
31368;SDS011;18004;48.416;10.066;2023-07-02T10:41:11;7.88;;;4.25;;
31368;SDS011;18004;48.416;10.066;2023-07-02T10:44:04;7.70;;;4.63;;
31368;SDS011;18004;48.416;10.066;2023-07-02T10:46:48;6.28;;;3.60;;
31368;SDS011;18004;48.416;10.066;2023-07-02T10:49:17;8.45;;;4.72;;
31368;SDS011;18004;48.416;10.066;2023-07-02T10:51:55;6.10;;;3.53;;
31368;SDS011;18004;48.416;10.066;2023-07-02T10:54:22;7.50;;;4.05;;
31368;SDS011;18004;48.416;10.066;2023-07-02T10:56:48;12.65;;;5.07;;
31368;SDS011;18004;48.416;10.066;2023-07-02T10:59:24;9.20;;;5.05;;
31368;SDS011;18004;48.416;10.066;2023-07-02T11:01:50;9.75;;;4.72;;
31368;SDS011;18004;48.416;10.066;2023-07-02T11:04:20;12.57;;;4.67;;
31368;SDS011;18004;48.416;10.066;2023-07-02T11:07:00;7.18;;;4.40;;
31368;SDS011;18004;48.416;10.066;2023-07-02T11:09:28;10.43;;;4.50;;
31368;SDS011;18004;48.416;10.066;2023-07-02T11:11:54;11.20;;;5.45;;
31368;SDS011;18004;48.416;10.066;2023-07-02T11:14:28;6.90;;;3.92;;
31368;SDS011;18004;48.416;10.066;2023-07-02T11:16:59;10.18;;;4.60;;
31368;SDS011;18004;48.416;10.066;2023-07-02T11:19:30;8.23;;;4.63;;
31368;SDS011;18004;48.416;10.066;2023-07-02T11:22:07;9.13;;;5.10;;
31368;SDS011;18004;48.416;10.066;2023-07-02T11:24:34;9.65;;;4.68;;
31368;SDS011;18004;48.416;10.066;2023-07-02T11:27:01;11.43;;;5.15;;
31368;SDS011;18004;48.416;10.066;2023-07-02T11:29:32;12.75;;;6.22;;
31368;SDS011;18004;48.416;10.066;2023-07-02T11:32:11;7.05;;;4.45;;
31368;SDS011;18004;48.416;10.066;2023-07-02T11:34:52;9.03;;;5.43;;
31368;SDS011;18004;48.416;10.066;2023-07-02T11:38:00;7.70;;;5.38;;
31368;SDS011;18004;48.416;10.066;2023-07-02T12:07:01;10.02;;;5.47;;
31368;SDS011;18004;48.416;10.066;2023-07-02T12:52:06;14.65;;;7.47;;
31368;SDS011;18004;48.416;10.066;2023-07-02T14:06:39;17.23;;;10.55;;
31368;SDS011;18004;48.416;10.066;2023-07-02T14:10:10;21.55;;;9.45;;
31368;SDS011;18004;48.416;10.066;2023-07-02T14:13:02;19.05;;;10.63;;
31368;SDS011;18004;48.416;10.066;2023-07-02T15:04:29;12.82;;;7.80;;
31368;SDS011;18004;48.416;10.066;2023-07-02T15:11:51;20.23;;;9.15;;
31368;SDS011;18004;48.416;10.066;2023-07-02T17:03:44;11.98;;;7.15;;
31368;SDS011;18004;48.416;10.066;2023-07-02T17:06:29;16.73;;;8.07;;
31368;SDS011;18004;48.416;10.066;2023-07-02T17:44:06;11.70;;;6.63;;
31368;SDS011;18004;48.416;10.066;2023-07-02T18:03:15;11.07;;;6.18;;
31368;SDS011;18004;48.416;10.066;2023-07-02T18:22:30;12.85;;;6.30;;
31368;SDS011;18004;48.416;10.066;2023-07-02T18:25:02;9.88;;;6.35;;
31368;SDS011;18004;48.416;10.066;2023-07-02T18:27:29;14.98;;;6.30;;
31368;SDS011;18004;48.416;10.066;2023-07-02T18:29:55;12.32;;;6.65;;
31368;SDS011;18004;48.416;10.066;2023-07-02T18:32:25;9.68;;;7.00;;
31368;SDS011;18004;48.416;10.066;2023-07-02T18:35:05;16.67;;;6.70;;
31368;SDS011;18004;48.416;10.066;2023-07-02T18:37:37;13.15;;;6.57;;
31368;SDS011;18004;48.416;10.066;2023-07-02T18:40:07;13.20;;;5.97;;
31368;SDS011;18004;48.416;10.066;2023-07-02T18:42:56;13.82;;;6.90;;
31368;SDS011;18004;48.416;10.066;2023-07-02T18:45:22;13.05;;;5.78;;
31368;SDS011;18004;48.416;10.066;2023-07-02T18:47:51;10.27;;;6.25;;
31368;SDS011;18004;48.416;10.066;2023-07-02T18:50:33;21.50;;;6.38;;
31368;SDS011;18004;48.416;10.066;2023-07-02T18:53:43;8.77;;;5.28;;
31368;SDS011;18004;48.416;10.066;2023-07-02T18:56:33;11.85;;;7.03;;
31368;SDS011;18004;48.416;10.066;2023-07-02T18:58:59;12.27;;;5.95;;
31368;SDS011;18004;48.416;10.066;2023-07-02T19:01:25;12.52;;;6.00;;
31368;SDS011;18004;48.416;10.066;2023-07-02T19:04:06;7.93;;;5.22;;
31368;SDS011;18004;48.416;10.066;2023-07-02T19:06:42;10.13;;;5.07;;
31368;SDS011;18004;48.416;10.066;2023-07-02T19:09:21;8.82;;;5.40;;
31368;SDS011;18004;48.416;10.066;2023-07-02T19:11:48;11.32;;;4.65;;
31368;SDS011;18004;48.416;10.066;2023-07-02T19:37:27;12.45;;;5.32;;
31368;SDS011;18004;48.416;10.066;2023-07-02T19:40:41;11.82;;;5.78;;
31368;SDS011;18004;48.416;10.066;2023-07-02T19:43:07;13.57;;;6.00;;
31368;SDS011;18004;48.416;10.066;2023-07-02T19:49:25;11.38;;;5.60;;
31368;SDS011;18004;48.416;10.066;2023-07-02T19:51:58;11.15;;;5.20;;
31368;SDS011;18004;48.416;10.066;2023-07-02T19:58:18;13.20;;;5.15;;
31368;SDS011;18004;48.416;10.066;2023-07-02T20:04:57;9.45;;;5.68;;
31368;SDS011;18004;48.416;10.066;2023-07-02T20:07:33;16.15;;;5.97;;
31368;SDS011;18004;48.416;10.066;2023-07-02T20:09:59;13.00;;;6.40;;
31368;SDS011;18004;48.416;10.066;2023-07-02T20:12:25;7.70;;;5.38;;
31368;SDS011;18004;48.416;10.066;2023-07-02T20:15:00;13.75;;;5.90;;
31368;SDS011;18004;48.416;10.066;2023-07-02T20:17:32;11.13;;;5.55;;
31368;SDS011;18004;48.416;10.066;2023-07-02T20:19:59;11.45;;;5.85;;
31368;SDS011;18004;48.416;10.066;2023-07-02T20:22:25;13.70;;;5.22;;
31368;SDS011;18004;48.416;10.066;2023-07-02T20:24:52;10.35;;;5.22;;
31368;SDS011;18004;48.416;10.066;2023-07-02T20:27:18;9.27;;;5.88;;
31368;SDS011;18004;48.416;10.066;2023-07-02T20:29:50;15.50;;;6.38;;
31368;SDS011;18004;48.416;10.066;2023-07-02T20:32:25;11.45;;;6.43;;
31368;SDS011;18004;48.416;10.066;2023-07-02T20:34:51;14.05;;;6.10;;
31368;SDS011;18004;48.416;10.066;2023-07-02T20:37:23;7.88;;;5.15;;
31368;SDS011;18004;48.416;10.066;2023-07-02T20:39:54;9.68;;;5.30;;
31368;SDS011;18004;48.416;10.066;2023-07-02T20:42:23;11.63;;;6.30;;
31368;SDS011;18004;48.416;10.066;2023-07-02T20:44:54;11.80;;;6.10;;
31368;SDS011;18004;48.416;10.066;2023-07-02T20:47:30;12.88;;;5.03;;
31368;SDS011;18004;48.416;10.066;2023-07-02T20:49:56;10.85;;;5.40;;
31368;SDS011;18004;48.416;10.066;2023-07-02T20:52:22;14.02;;;5.85;;
31368;SDS011;18004;48.416;10.066;2023-07-02T20:55:08;12.07;;;6.38;;
31368;SDS011;18004;48.416;10.066;2023-07-02T20:58:04;12.05;;;6.35;;
31368;SDS011;18004;48.416;10.066;2023-07-02T21:00:48;13.63;;;5.85;;
31368;SDS011;18004;48.416;10.066;2023-07-02T21:03:17;8.45;;;5.25;;
31368;SDS011;18004;48.416;10.066;2023-07-02T21:05:46;12.90;;;5.93;;
31368;SDS011;18004;48.416;10.066;2023-07-02T21:08:19;12.50;;;6.45;;
31368;SDS011;18004;48.416;10.066;2023-07-02T21:10:53;8.10;;;5.88;;
31368;SDS011;18004;48.416;10.066;2023-07-02T21:13:36;10.80;;;5.20;;
31368;SDS011;18004;48.416;10.066;2023-07-02T21:20:25;12.77;;;5.70;;
31368;SDS011;18004;48.416;10.066;2023-07-02T21:45:18;11.70;;;5.95;;
31368;SDS011;18004;48.416;10.066;2023-07-02T21:47:45;12.75;;;6.40;;
31368;SDS011;18004;48.416;10.066;2023-07-02T21:50:11;13.27;;;5.88;;
31368;SDS011;18004;48.416;10.066;2023-07-02T21:52:38;10.70;;;6.40;;
31368;SDS011;18004;48.416;10.066;2023-07-02T21:55:03;11.27;;;6.32;;
31368;SDS011;18004;48.416;10.066;2023-07-02T21:57:29;14.95;;;6.30;;
31368;SDS011;18004;48.416;10.066;2023-07-02T21:59:55;12.60;;;6.10;;
31368;SDS011;18004;48.416;10.066;2023-07-02T22:05:55;9.80;;;5.55;;
31368;SDS011;18004;48.416;10.066;2023-07-02T22:09:20;18.02;;;6.63;;
31368;SDS011;18004;48.416;10.066;2023-07-02T22:11:55;13.57;;;5.75;;
31368;SDS011;18004;48.416;10.066;2023-07-02T22:17:09;10.75;;;5.88;;
31368;SDS011;18004;48.416;10.066;2023-07-02T22:23:13;10.75;;;5.63;;
31368;SDS011;18004;48.416;10.066;2023-07-02T22:37:11;10.43;;;6.00;;
31368;SDS011;18004;48.416;10.066;2023-07-02T22:40:22;14.98;;;6.43;;
31368;SDS011;18004;48.416;10.066;2023-07-02T23:03:23;15.70;;;6.18;;
31368;SDS011;18004;48.416;10.066;2023-07-02T23:06:07;11.32;;;5.68;;
31368;SDS011;18004;48.416;10.066;2023-07-02T23:09:03;12.20;;;5.60;;
31368;SDS011;18004;48.416;10.066;2023-07-02T23:12:05;14.55;;;5.97;;
31368;SDS011;18004;48.416;10.066;2023-07-02T23:14:40;12.30;;;6.05;;
31368;SDS011;18004;48.416;10.066;2023-07-02T23:17:06;12.48;;;5.88;;
31368;SDS011;18004;48.416;10.066;2023-07-02T23:19:32;12.43;;;6.03;;
31368;SDS011;18004;48.416;10.066;2023-07-02T23:22:01;16.17;;;6.85;;
31368;SDS011;18004;48.416;10.066;2023-07-02T23:24:38;11.77;;;5.72;;
31368;SDS011;18004;48.416;10.066;2023-07-02T23:27:03;11.75;;;6.53;;
31368;SDS011;18004;48.416;10.066;2023-07-02T23:29:34;13.35;;;6.35;;
31368;SDS011;18004;48.416;10.066;2023-07-02T23:31:59;13.30;;;6.32;;
31368;SDS011;18004;48.416;10.066;2023-07-02T23:34:25;12.88;;;6.85;;
31368;SDS011;18004;48.416;10.066;2023-07-02T23:36:51;10.73;;;6.28;;
31368;SDS011;18004;48.416;10.066;2023-07-02T23:39:17;17.35;;;6.78;;
31368;SDS011;18004;48.416;10.066;2023-07-02T23:41:45;11.70;;;6.22;;
31368;SDS011;18004;48.416;10.066;2023-07-02T23:44:11;11.85;;;6.38;;
31368;SDS011;18004;48.416;10.066;2023-07-02T23:46:37;13.32;;;6.13;;
31368;SDS011;18004;48.416;10.066;2023-07-02T23:49:03;14.02;;;6.10;;
31368;SDS011;18004;48.416;10.066;2023-07-02T23:51:29;16.20;;;7.00;;